sensor_id;sensor_type;location;lat;lon;timestamp;temperature;humidity
70079;DHT22;57451;52.496;13.456;2022-08-21T00:00:19;21.10;70.00
70079;DHT22;57451;52.496;13.456;2022-08-21T00:02:50;21.10;69.80
70079;DHT22;57451;52.496;13.456;2022-08-21T00:05:17;21.10;69.60
70079;DHT22;57451;52.496;13.456;2022-08-21T00:07:43;21.10;70.00
70079;DHT22;57451;52.496;13.456;2022-08-21T00:10:11;21.10;69.90
70079;DHT22;57451;52.496;13.456;2022-08-21T00:12:38;21.00;70.30
70079;DHT22;57451;52.496;13.456;2022-08-21T00:15:06;21.00;70.10
70079;DHT22;57451;52.496;13.456;2022-08-21T00:17:33;21.00;69.80
70079;DHT22;57451;52.496;13.456;2022-08-21T00:20:01;21.00;70.40
70079;DHT22;57451;52.496;13.456;2022-08-21T00:22:28;21.00;69.80
70079;DHT22;57451;52.496;13.456;2022-08-21T00:24:54;21.00;70.00
70079;DHT22;57451;52.496;13.456;2022-08-21T00:27:20;20.90;70.50
70079;DHT22;57451;52.496;13.456;2022-08-21T00:29:46;21.00;70.20
70079;DHT22;57451;52.496;13.456;2022-08-21T00:32:12;20.90;69.90
70079;DHT22;57451;52.496;13.456;2022-08-21T00:34:38;20.90;69.80
70079;DHT22;57451;52.496;13.456;2022-08-21T00:37:06;20.90;70.10
70079;DHT22;57451;52.496;13.456;2022-08-21T00:39:33;20.90;70.30
70079;DHT22;57451;52.496;13.456;2022-08-21T00:41:59;20.90;70.70
70079;DHT22;57451;52.496;13.456;2022-08-21T00:44:26;20.90;70.10
70079;DHT22;57451;52.496;13.456;2022-08-21T00:46:52;20.90;69.80
70079;DHT22;57451;52.496;13.456;2022-08-21T00:49:18;20.90;70.20
70079;DHT22;57451;52.496;13.456;2022-08-21T00:51:48;20.90;70.20
70079;DHT22;57451;52.496;13.456;2022-08-21T00:54:17;20.90;70.10
70079;DHT22;57451;52.496;13.456;2022-08-21T00:56:45;20.90;70.40
70079;DHT22;57451;52.496;13.456;2022-08-21T00:59:11;20.90;70.10
70079;DHT22;57451;52.496;13.456;2022-08-21T01:01:38;20.80;70.10
70079;DHT22;57451;52.496;13.456;2022-08-21T01:04:04;20.80;69.80
70079;DHT22;57451;52.496;13.456;2022-08-21T01:06:31;20.80;70.40
70079;DHT22;57451;52.496;13.456;2022-08-21T01:08:58;20.80;69.80
70079;DHT22;57451;52.496;13.456;2022-08-21T01:11:26;20.80;70.50
70079;DHT22;57451;52.496;13.456;2022-08-21T01:13:52;20.70;70.80
70079;DHT22;57451;52.496;13.456;2022-08-21T01:16:20;20.70;70.80
70079;DHT22;57451;52.496;13.456;2022-08-21T01:18:47;20.70;70.70
70079;DHT22;57451;52.496;13.456;2022-08-21T01:21:18;20.70;70.70
70079;DHT22;57451;52.496;13.456;2022-08-21T01:23:48;20.70;70.50
70079;DHT22;57451;52.496;13.456;2022-08-21T01:26:17;20.70;70.60
70079;DHT22;57451;52.496;13.456;2022-08-21T01:28:47;20.70;70.50
70079;DHT22;57451;52.496;13.456;2022-08-21T01:31:17;20.70;70.90
70079;DHT22;57451;52.496;13.456;2022-08-21T01:33:45;20.70;70.30
70079;DHT22;57451;52.496;13.456;2022-08-21T01:36:11;20.60;70.20
70079;DHT22;57451;52.496;13.456;2022-08-21T01:38:39;20.60;69.80
70079;DHT22;57451;52.496;13.456;2022-08-21T01:41:05;20.60;69.60
70079;DHT22;57451;52.496;13.456;2022-08-21T01:43:31;20.60;69.60
70079;DHT22;57451;52.496;13.456;2022-08-21T01:45:57;20.60;69.40
70079;DHT22;57451;52.496;13.456;2022-08-21T01:48:24;20.50;69.40
70079;DHT22;57451;52.496;13.456;2022-08-21T01:50:50;20.50;69.30
70079;DHT22;57451;52.496;13.456;2022-08-21T01:53:16;20.50;69.30
70079;DHT22;57451;52.496;13.456;2022-08-21T01:55:44;20.50;69.60
70079;DHT22;57451;52.496;13.456;2022-08-21T01:58:10;20.40;69.60
70079;DHT22;57451;52.496;13.456;2022-08-21T02:00:36;20.40;69.40
70079;DHT22;57451;52.496;13.456;2022-08-21T02:03:02;20.40;69.70
70079;DHT22;57451;52.496;13.456;2022-08-21T02:05:29;20.40;69.70
70079;DHT22;57451;52.496;13.456;2022-08-21T02:07:56;20.40;69.70
70079;DHT22;57451;52.496;13.456;2022-08-21T02:10:26;20.40;69.40
70079;DHT22;57451;52.496;13.456;2022-08-21T02:12:55;20.40;69.40
70079;DHT22;57451;52.496;13.456;2022-08-21T02:15:22;20.40;69.50
70079;DHT22;57451;52.496;13.456;2022-08-21T02:17:50;20.30;69.40
70079;DHT22;57451;52.496;13.456;2022-08-21T02:20:21;20.30;69.20
70079;DHT22;57451;52.496;13.456;2022-08-21T02:22:48;20.30;69.20
70079;DHT22;57451;52.496;13.456;2022-08-21T02:25:15;20.30;69.20
70079;DHT22;57451;52.496;13.456;2022-08-21T02:27:43;20.30;68.90
70079;DHT22;57451;52.496;13.456;2022-08-21T02:30:14;20.20;69.20
70079;DHT22;57451;52.496;13.456;2022-08-21T02:32:40;20.20;69.20
70079;DHT22;57451;52.496;13.456;2022-08-21T02:35:08;20.20;69.10
70079;DHT22;57451;52.496;13.456;2022-08-21T02:37:43;20.10;69.10
70079;DHT22;57451;52.496;13.456;2022-08-21T02:40:10;20.10;68.90
70079;DHT22;57451;52.496;13.456;2022-08-21T02:42:37;20.10;69.00
70079;DHT22;57451;52.496;13.456;2022-08-21T02:45:05;20.10;68.80
70079;DHT22;57451;52.496;13.456;2022-08-21T02:47:33;20.00;68.90
70079;DHT22;57451;52.496;13.456;2022-08-21T02:49:59;20.00;68.70
70079;DHT22;57451;52.496;13.456;2022-08-21T02:52:25;20.00;68.90
70079;DHT22;57451;52.496;13.456;2022-08-21T02:54:51;20.00;69.00
70079;DHT22;57451;52.496;13.456;2022-08-21T02:57:18;19.90;68.80
70079;DHT22;57451;52.496;13.456;2022-08-21T02:59:44;19.90;68.80
70079;DHT22;57451;52.496;13.456;2022-08-21T03:02:10;19.90;68.60
70079;DHT22;57451;52.496;13.456;2022-08-21T03:04:38;19.90;68.80
70079;DHT22;57451;52.496;13.456;2022-08-21T03:07:04;19.90;68.50
70079;DHT22;57451;52.496;13.456;2022-08-21T03:09:31;19.90;68.60
70079;DHT22;57451;52.496;13.456;2022-08-21T03:11:57;19.80;68.60
70079;DHT22;57451;52.496;13.456;2022-08-21T03:14:23;19.80;68.30
70079;DHT22;57451;52.496;13.456;2022-08-21T03:16:49;19.80;68.30
70079;DHT22;57451;52.496;13.456;2022-08-21T03:19:15;19.80;68.40
70079;DHT22;57451;52.496;13.456;2022-08-21T03:21:43;19.80;68.30
70079;DHT22;57451;52.496;13.456;2022-08-21T03:24:09;19.80;68.90
70079;DHT22;57451;52.496;13.456;2022-08-21T03:26:35;19.70;68.70
70079;DHT22;57451;52.496;13.456;2022-08-21T03:29:02;19.70;68.40
70079;DHT22;57451;52.496;13.456;2022-08-21T03:31:28;19.70;68.40
70079;DHT22;57451;52.496;13.456;2022-08-21T03:33:56;19.70;68.30
70079;DHT22;57451;52.496;13.456;2022-08-21T03:36:23;19.60;68.40
70079;DHT22;57451;52.496;13.456;2022-08-21T03:38:51;19.60;68.20
70079;DHT22;57451;52.496;13.456;2022-08-21T03:41:17;19.60;68.30
70079;DHT22;57451;52.496;13.456;2022-08-21T03:43:43;19.50;68.10
70079;DHT22;57451;52.496;13.456;2022-08-21T03:46:10;19.50;67.90
70079;DHT22;57451;52.496;13.456;2022-08-21T03:48:36;19.50;67.90
70079;DHT22;57451;52.496;13.456;2022-08-21T03:51:03;19.50;68.10
70079;DHT22;57451;52.496;13.456;2022-08-21T03:53:29;19.50;68.10
70079;DHT22;57451;52.496;13.456;2022-08-21T03:55:57;19.40;67.90
70079;DHT22;57451;52.496;13.456;2022-08-21T03:58:26;19.40;68.00
70079;DHT22;57451;52.496;13.456;2022-08-21T04:00:58;19.40;68.10
70079;DHT22;57451;52.496;13.456;2022-08-21T04:03:26;19.40;68.20
70079;DHT22;57451;52.496;13.456;2022-08-21T04:05:52;19.40;67.90
70079;DHT22;57451;52.496;13.456;2022-08-21T04:08:18;19.30;68.30
70079;DHT22;57451;52.496;13.456;2022-08-21T04:10:47;19.30;68.40
70079;DHT22;57451;52.496;13.456;2022-08-21T04:13:15;19.20;68.10
70079;DHT22;57451;52.496;13.456;2022-08-21T04:15:42;19.20;68.60
70079;DHT22;57451;52.496;13.456;2022-08-21T04:18:10;19.20;68.30
70079;DHT22;57451;52.496;13.456;2022-08-21T04:20:36;19.20;68.30
70079;DHT22;57451;52.496;13.456;2022-08-21T04:23:03;19.20;68.30
70079;DHT22;57451;52.496;13.456;2022-08-21T04:25:29;19.20;68.20
70079;DHT22;57451;52.496;13.456;2022-08-21T04:27:55;19.10;68.50
70079;DHT22;57451;52.496;13.456;2022-08-21T04:30:24;19.10;68.10
70079;DHT22;57451;52.496;13.456;2022-08-21T04:32:50;19.10;68.30
70079;DHT22;57451;52.496;13.456;2022-08-21T04:35:19;19.10;67.80
70079;DHT22;57451;52.496;13.456;2022-08-21T04:37:45;19.10;68.30
70079;DHT22;57451;52.496;13.456;2022-08-21T04:40:13;19.10;68.50
70079;DHT22;57451;52.496;13.456;2022-08-21T04:42:44;19.10;67.90
70079;DHT22;57451;52.496;13.456;2022-08-21T04:45:16;19.10;68.30
70079;DHT22;57451;52.496;13.456;2022-08-21T04:47:44;19.00;68.00
70079;DHT22;57451;52.496;13.456;2022-08-21T04:50:10;19.00;68.00
70079;DHT22;57451;52.496;13.456;2022-08-21T04:52:52;19.00;67.90
70079;DHT22;57451;52.496;13.456;2022-08-21T04:55:20;19.00;67.90
70079;DHT22;57451;52.496;13.456;2022-08-21T04:57:47;19.00;67.90
70079;DHT22;57451;52.496;13.456;2022-08-21T05:00:16;19.00;68.00
70079;DHT22;57451;52.496;13.456;2022-08-21T05:02:45;19.00;68.00
70079;DHT22;57451;52.496;13.456;2022-08-21T05:05:13;19.00;68.10
70079;DHT22;57451;52.496;13.456;2022-08-21T05:07:42;19.00;67.90
70079;DHT22;57451;52.496;13.456;2022-08-21T05:10:10;19.00;67.90
70079;DHT22;57451;52.496;13.456;2022-08-21T05:12:37;18.90;67.90
70079;DHT22;57451;52.496;13.456;2022-08-21T05:15:03;18.90;68.10
70079;DHT22;57451;52.496;13.456;2022-08-21T05:17:30;19.00;67.90
70079;DHT22;57451;52.496;13.456;2022-08-21T05:19:57;19.00;67.60
70079;DHT22;57451;52.496;13.456;2022-08-21T05:22:24;19.00;67.60
70079;DHT22;57451;52.496;13.456;2022-08-21T05:24:51;19.00;67.40
70079;DHT22;57451;52.496;13.456;2022-08-21T05:27:17;19.00;67.70
70079;DHT22;57451;52.496;13.456;2022-08-21T05:29:43;19.00;67.40
70079;DHT22;57451;52.496;13.456;2022-08-21T05:32:10;19.00;67.40
70079;DHT22;57451;52.496;13.456;2022-08-21T05:34:36;19.00;67.60
70079;DHT22;57451;52.496;13.456;2022-08-21T05:37:04;19.00;67.50
70079;DHT22;57451;52.496;13.456;2022-08-21T05:39:31;19.00;68.00
70079;DHT22;57451;52.496;13.456;2022-08-21T05:41:57;19.00;68.00
70079;DHT22;57451;52.496;13.456;2022-08-21T05:44:23;19.00;67.80
70079;DHT22;57451;52.496;13.456;2022-08-21T05:46:50;19.00;68.00
70079;DHT22;57451;52.496;13.456;2022-08-21T05:49:16;19.00;68.20
70079;DHT22;57451;52.496;13.456;2022-08-21T05:51:42;19.00;68.00
70079;DHT22;57451;52.496;13.456;2022-08-21T05:54:09;19.00;68.00
70079;DHT22;57451;52.496;13.456;2022-08-21T05:56:36;19.00;68.00
70079;DHT22;57451;52.496;13.456;2022-08-21T05:59:03;18.90;67.90
70079;DHT22;57451;52.496;13.456;2022-08-21T06:01:29;18.90;68.10
70079;DHT22;57451;52.496;13.456;2022-08-21T06:03:55;18.90;68.20
70079;DHT22;57451;52.496;13.456;2022-08-21T06:06:22;19.00;67.90
70079;DHT22;57451;52.496;13.456;2022-08-21T06:08:48;18.90;67.90
70079;DHT22;57451;52.496;13.456;2022-08-21T06:11:15;19.00;67.60
70079;DHT22;57451;52.496;13.456;2022-08-21T06:13:41;19.00;67.60
70079;DHT22;57451;52.496;13.456;2022-08-21T06:16:10;19.00;67.80
70079;DHT22;57451;52.496;13.456;2022-08-21T06:18:37;19.00;67.80
70079;DHT22;57451;52.496;13.456;2022-08-21T06:21:04;19.00;67.70
70079;DHT22;57451;52.496;13.456;2022-08-21T06:23:31;19.00;67.60
70079;DHT22;57451;52.496;13.456;2022-08-21T06:25:58;19.10;67.50
70079;DHT22;57451;52.496;13.456;2022-08-21T06:28:25;19.10;67.50
70079;DHT22;57451;52.496;13.456;2022-08-21T06:30:51;19.10;67.30
70079;DHT22;57451;52.496;13.456;2022-08-21T06:33:17;19.10;67.40
70079;DHT22;57451;52.496;13.456;2022-08-21T06:35:44;19.10;67.30
70079;DHT22;57451;52.496;13.456;2022-08-21T06:38:10;19.10;67.20
70079;DHT22;57451;52.496;13.456;2022-08-21T06:40:37;19.10;66.70
70079;DHT22;57451;52.496;13.456;2022-08-21T06:43:08;19.10;66.70
70079;DHT22;57451;52.496;13.456;2022-08-21T06:45:37;19.10;66.90
70079;DHT22;57451;52.496;13.456;2022-08-21T06:48:04;19.10;66.80
70079;DHT22;57451;52.496;13.456;2022-08-21T06:50:31;19.20;66.60
70079;DHT22;57451;52.496;13.456;2022-08-21T06:53:02;19.10;66.80
70079;DHT22;57451;52.496;13.456;2022-08-21T06:55:28;19.10;66.60
70079;DHT22;57451;52.496;13.456;2022-08-21T06:57:54;19.10;66.70
70079;DHT22;57451;52.496;13.456;2022-08-21T07:00:21;19.20;66.70
70079;DHT22;57451;52.496;13.456;2022-08-21T07:02:48;19.30;66.70
70079;DHT22;57451;52.496;13.456;2022-08-21T07:05:15;19.30;66.30
70079;DHT22;57451;52.496;13.456;2022-08-21T07:07:41;19.40;66.00
70079;DHT22;57451;52.496;13.456;2022-08-21T07:10:08;19.40;66.30
70079;DHT22;57451;52.496;13.456;2022-08-21T07:12:34;19.50;66.30
70079;DHT22;57451;52.496;13.456;2022-08-21T07:15:00;19.50;65.50
70079;DHT22;57451;52.496;13.456;2022-08-21T07:17:26;19.60;65.70
70079;DHT22;57451;52.496;13.456;2022-08-21T07:19:54;19.60;66.20
70079;DHT22;57451;52.496;13.456;2022-08-21T07:22:20;19.70;65.60
70079;DHT22;57451;52.496;13.456;2022-08-21T07:24:47;19.70;65.30
70079;DHT22;57451;52.496;13.456;2022-08-21T07:27:13;19.80;65.10
70079;DHT22;57451;52.496;13.456;2022-08-21T07:29:39;19.90;65.10
70079;DHT22;57451;52.496;13.456;2022-08-21T07:32:06;19.90;64.90
70079;DHT22;57451;52.496;13.456;2022-08-21T07:34:32;19.90;64.40
70079;DHT22;57451;52.496;13.456;2022-08-21T07:36:59;20.00;64.30
70079;DHT22;57451;52.496;13.456;2022-08-21T07:39:26;20.00;64.20
70079;DHT22;57451;52.496;13.456;2022-08-21T07:41:52;20.00;64.20
70079;DHT22;57451;52.496;13.456;2022-08-21T07:44:18;20.10;63.90
70079;DHT22;57451;52.496;13.456;2022-08-21T07:46:44;20.20;63.00
70079;DHT22;57451;52.496;13.456;2022-08-21T07:49:10;20.20;63.20
70079;DHT22;57451;52.496;13.456;2022-08-21T07:51:36;20.30;63.20
70079;DHT22;57451;52.496;13.456;2022-08-21T07:54:04;20.30;63.00
70079;DHT22;57451;52.496;13.456;2022-08-21T07:56:31;20.40;62.20
70079;DHT22;57451;52.496;13.456;2022-08-21T07:58:58;20.50;61.60
70079;DHT22;57451;52.496;13.456;2022-08-21T08:01:25;20.50;61.00
70079;DHT22;57451;52.496;13.456;2022-08-21T08:03:51;20.50;60.80
70079;DHT22;57451;52.496;13.456;2022-08-21T08:06:18;20.50;60.50
70079;DHT22;57451;52.496;13.456;2022-08-21T08:08:45;20.60;60.00
70079;DHT22;57451;52.496;13.456;2022-08-21T08:11:13;20.60;59.80
70079;DHT22;57451;52.496;13.456;2022-08-21T08:13:44;20.60;60.00
70079;DHT22;57451;52.496;13.456;2022-08-21T08:16:11;20.70;59.10
70079;DHT22;57451;52.496;13.456;2022-08-21T08:18:37;20.70;59.00
70079;DHT22;57451;52.496;13.456;2022-08-21T08:21:05;20.80;58.80
70079;DHT22;57451;52.496;13.456;2022-08-21T08:23:31;20.90;58.60
70079;DHT22;57451;52.496;13.456;2022-08-21T08:25:58;20.90;58.40
70079;DHT22;57451;52.496;13.456;2022-08-21T08:28:26;20.90;57.40
70079;DHT22;57451;52.496;13.456;2022-08-21T08:30:53;21.00;57.10
70079;DHT22;57451;52.496;13.456;2022-08-21T08:33:19;21.00;57.00
70079;DHT22;57451;52.496;13.456;2022-08-21T08:35:47;21.10;58.00
70079;DHT22;57451;52.496;13.456;2022-08-21T08:38:14;21.20;57.00
70079;DHT22;57451;52.496;13.456;2022-08-21T08:40:47;21.30;57.70
70079;DHT22;57451;52.496;13.456;2022-08-21T08:43:17;21.40;57.40
70079;DHT22;57451;52.496;13.456;2022-08-21T08:45:49;21.50;56.50
70079;DHT22;57451;52.496;13.456;2022-08-21T08:48:33;21.50;56.50
70079;DHT22;57451;52.496;13.456;2022-08-21T08:51:02;21.60;55.40
70079;DHT22;57451;52.496;13.456;2022-08-21T08:53:32;21.70;56.50
70079;DHT22;57451;52.496;13.456;2022-08-21T08:56:00;21.80;56.10
70079;DHT22;57451;52.496;13.456;2022-08-21T08:58:29;21.80;54.30
70079;DHT22;57451;52.496;13.456;2022-08-21T09:00:59;21.80;55.30
70079;DHT22;57451;52.496;13.456;2022-08-21T09:03:26;21.80;55.30
70079;DHT22;57451;52.496;13.456;2022-08-21T09:05:57;21.80;55.50
70079;DHT22;57451;52.496;13.456;2022-08-21T09:08:38;21.90;55.70
70079;DHT22;57451;52.496;13.456;2022-08-21T09:11:21;21.90;54.30
70079;DHT22;57451;52.496;13.456;2022-08-21T09:13:54;21.90;54.80
70079;DHT22;57451;52.496;13.456;2022-08-21T09:16:30;21.90;54.50
70079;DHT22;57451;52.496;13.456;2022-08-21T09:19:14;21.90;54.70
70079;DHT22;57451;52.496;13.456;2022-08-21T09:21:47;21.90;54.60
70079;DHT22;57451;52.496;13.456;2022-08-21T09:24:26;21.90;54.20
70079;DHT22;57451;52.496;13.456;2022-08-21T09:27:02;22.00;54.90
70079;DHT22;57451;52.496;13.456;2022-08-21T09:29:34;22.10;55.00
70079;DHT22;57451;52.496;13.456;2022-08-21T09:32:04;22.10;54.30
70079;DHT22;57451;52.496;13.456;2022-08-21T09:34:35;22.10;54.20
70079;DHT22;57451;52.496;13.456;2022-08-21T09:37:02;22.00;53.90
70079;DHT22;57451;52.496;13.456;2022-08-21T09:39:30;22.10;54.60
70079;DHT22;57451;52.496;13.456;2022-08-21T09:42:00;22.10;54.60
70079;DHT22;57451;52.496;13.456;2022-08-21T09:44:28;22.10;54.40
70079;DHT22;57451;52.496;13.456;2022-08-21T09:46:55;22.10;54.40
70079;DHT22;57451;52.496;13.456;2022-08-21T09:49:30;22.20;53.90
70079;DHT22;57451;52.496;13.456;2022-08-21T09:51:57;22.20;53.00
70079;DHT22;57451;52.496;13.456;2022-08-21T09:54:28;22.20;52.10
70079;DHT22;57451;52.496;13.456;2022-08-21T09:56:57;22.20;53.60
70079;DHT22;57451;52.496;13.456;2022-08-21T09:59:43;22.20;53.10
70079;DHT22;57451;52.496;13.456;2022-08-21T10:02:25;22.30;52.60
70079;DHT22;57451;52.496;13.456;2022-08-21T10:04:55;22.30;51.90
70079;DHT22;57451;52.496;13.456;2022-08-21T10:07:24;22.30;52.30
70079;DHT22;57451;52.496;13.456;2022-08-21T10:09:59;22.30;52.70
70079;DHT22;57451;52.496;13.456;2022-08-21T10:12:32;22.40;53.20
70079;DHT22;57451;52.496;13.456;2022-08-21T10:15:05;22.40;50.90
70079;DHT22;57451;52.496;13.456;2022-08-21T10:17:37;22.50;52.60
70079;DHT22;57451;52.496;13.456;2022-08-21T10:20:13;22.50;51.60
70079;DHT22;57451;52.496;13.456;2022-08-21T10:22:47;22.50;51.10
70079;DHT22;57451;52.496;13.456;2022-08-21T10:25:19;22.60;51.90
70079;DHT22;57451;52.496;13.456;2022-08-21T10:27:54;22.70;51.00
70079;DHT22;57451;52.496;13.456;2022-08-21T10:30:31;22.70;50.30
70079;DHT22;57451;52.496;13.456;2022-08-21T10:33:26;22.80;50.30
70079;DHT22;57451;52.496;13.456;2022-08-21T10:36:00;22.80;51.10
70079;DHT22;57451;52.496;13.456;2022-08-21T10:38:49;22.90;51.20
70079;DHT22;57451;52.496;13.456;2022-08-21T10:41:22;22.90;52.30
70079;DHT22;57451;52.496;13.456;2022-08-21T10:43:59;23.10;52.80
70079;DHT22;57451;52.496;13.456;2022-08-21T10:46:38;23.10;52.40
70079;DHT22;57451;52.496;13.456;2022-08-21T10:49:17;23.20;51.90
70079;DHT22;57451;52.496;13.456;2022-08-21T10:51:54;23.30;51.40
70079;DHT22;57451;52.496;13.456;2022-08-21T10:54:29;23.40;51.90
70079;DHT22;57451;52.496;13.456;2022-08-21T10:57:04;23.50;51.80
70079;DHT22;57451;52.496;13.456;2022-08-21T10:59:36;23.60;51.00
70079;DHT22;57451;52.496;13.456;2022-08-21T11:02:11;23.60;51.20
70079;DHT22;57451;52.496;13.456;2022-08-21T11:04:52;23.70;51.80
70079;DHT22;57451;52.496;13.456;2022-08-21T11:07:26;23.80;48.50
70079;DHT22;57451;52.496;13.456;2022-08-21T11:09:56;23.80;50.70
70079;DHT22;57451;52.496;13.456;2022-08-21T11:12:27;23.90;49.50
70079;DHT22;57451;52.496;13.456;2022-08-21T11:14:58;24.00;50.20
70079;DHT22;57451;52.496;13.456;2022-08-21T11:17:32;24.00;48.90
70079;DHT22;57451;52.496;13.456;2022-08-21T11:20:07;24.10;48.20
70079;DHT22;57451;52.496;13.456;2022-08-21T11:22:41;24.30;49.00
70079;DHT22;57451;52.496;13.456;2022-08-21T11:25:20;24.30;48.00
70079;DHT22;57451;52.496;13.456;2022-08-21T11:27:52;24.50;49.30
70079;DHT22;57451;52.496;13.456;2022-08-21T11:30:20;24.60;49.20
70079;DHT22;57451;52.496;13.456;2022-08-21T11:33:04;24.80;46.90
70079;DHT22;57451;52.496;13.456;2022-08-21T11:35:36;25.00;46.50
70079;DHT22;57451;52.496;13.456;2022-08-21T11:38:22;25.20;46.80
70079;DHT22;57451;52.496;13.456;2022-08-21T11:41:03;25.40;45.60
70079;DHT22;57451;52.496;13.456;2022-08-21T11:43:38;25.60;45.50
70079;DHT22;57451;52.496;13.456;2022-08-21T11:46:14;26.00;46.60
70079;DHT22;57451;52.496;13.456;2022-08-21T11:48:50;26.30;43.30
70079;DHT22;57451;52.496;13.456;2022-08-21T11:51:26;26.50;43.40
70079;DHT22;57451;52.496;13.456;2022-08-21T11:54:01;26.80;43.80
70079;DHT22;57451;52.496;13.456;2022-08-21T11:56:39;27.20;42.70
70079;DHT22;57451;52.496;13.456;2022-08-21T11:59:11;27.50;37.80
70079;DHT22;57451;52.496;13.456;2022-08-21T12:01:41;27.70;40.30
70079;DHT22;57451;52.496;13.456;2022-08-21T12:04:18;28.00;41.40
70079;DHT22;57451;52.496;13.456;2022-08-21T12:06:45;28.40;37.20
70079;DHT22;57451;52.496;13.456;2022-08-21T12:09:30;28.80;39.20
70079;DHT22;57451;52.496;13.456;2022-08-21T12:12:02;29.20;38.50
70079;DHT22;57451;52.496;13.456;2022-08-21T12:14:37;29.50;36.30
70079;DHT22;57451;52.496;13.456;2022-08-21T12:17:05;29.50;37.80
70079;DHT22;57451;52.496;13.456;2022-08-21T12:19:32;29.70;37.50
70079;DHT22;57451;52.496;13.456;2022-08-21T12:22:07;29.80;36.60
70079;DHT22;57451;52.496;13.456;2022-08-21T12:24:38;29.90;35.80
70079;DHT22;57451;52.496;13.456;2022-08-21T12:27:22;29.90;37.90
70079;DHT22;57451;52.496;13.456;2022-08-21T12:29:55;30.10;34.50
70079;DHT22;57451;52.496;13.456;2022-08-21T12:32:27;30.10;37.10
70079;DHT22;57451;52.496;13.456;2022-08-21T12:34:57;30.40;37.00
70079;DHT22;57451;52.496;13.456;2022-08-21T12:37:31;30.80;36.10
70079;DHT22;57451;52.496;13.456;2022-08-21T12:40:02;31.10;34.60
70079;DHT22;57451;52.496;13.456;2022-08-21T12:42:36;31.30;35.70
70079;DHT22;57451;52.496;13.456;2022-08-21T12:45:11;31.60;32.50
70079;DHT22;57451;52.496;13.456;2022-08-21T12:47:47;31.70;35.10
70079;DHT22;57451;52.496;13.456;2022-08-21T12:50:18;32.10;34.60
70079;DHT22;57451;52.496;13.456;2022-08-21T12:52:51;32.50;30.90
70079;DHT22;57451;52.496;13.456;2022-08-21T12:55:27;32.50;33.50
70079;DHT22;57451;52.496;13.456;2022-08-21T12:57:54;32.90;34.30
70079;DHT22;57451;52.496;13.456;2022-08-21T13:00:23;33.20;35.00
70079;DHT22;57451;52.496;13.456;2022-08-21T13:02:51;33.60;32.00
70079;DHT22;57451;52.496;13.456;2022-08-21T13:05:27;33.70;32.30
70079;DHT22;57451;52.496;13.456;2022-08-21T13:07:53;33.90;32.90
70079;DHT22;57451;52.496;13.456;2022-08-21T13:10:23;34.20;30.70
70079;DHT22;57451;52.496;13.456;2022-08-21T13:12:50;34.40;30.40
70079;DHT22;57451;52.496;13.456;2022-08-21T13:15:25;34.40;31.20
70079;DHT22;57451;52.496;13.456;2022-08-21T13:17:51;34.50;30.90
70079;DHT22;57451;52.496;13.456;2022-08-21T13:20:20;34.60;30.80
70079;DHT22;57451;52.496;13.456;2022-08-21T13:22:47;34.70;30.20
70079;DHT22;57451;52.496;13.456;2022-08-21T13:25:16;34.80;30.70
70079;DHT22;57451;52.496;13.456;2022-08-21T13:27:55;35.00;30.80
70079;DHT22;57451;52.496;13.456;2022-08-21T13:30:22;35.20;30.70
70079;DHT22;57451;52.496;13.456;2022-08-21T13:32:51;35.40;30.40
70079;DHT22;57451;52.496;13.456;2022-08-21T13:35:19;35.50;29.20
70079;DHT22;57451;52.496;13.456;2022-08-21T13:37:48;35.60;28.50
70079;DHT22;57451;52.496;13.456;2022-08-21T13:40:17;35.70;29.50
70079;DHT22;57451;52.496;13.456;2022-08-21T13:42:47;35.90;29.60
70079;DHT22;57451;52.496;13.456;2022-08-21T13:45:16;35.90;28.70
70079;DHT22;57451;52.496;13.456;2022-08-21T13:47:43;36.00;30.70
70079;DHT22;57451;52.496;13.456;2022-08-21T13:50:12;36.20;31.40
70079;DHT22;57451;52.496;13.456;2022-08-21T13:52:47;36.20;27.30
70079;DHT22;57451;52.496;13.456;2022-08-21T13:55:16;36.10;29.30
70079;DHT22;57451;52.496;13.456;2022-08-21T13:57:42;36.20;30.40
70079;DHT22;57451;52.496;13.456;2022-08-21T14:00:16;36.20;30.20
70079;DHT22;57451;52.496;13.456;2022-08-21T14:02:45;36.00;28.50
70079;DHT22;57451;52.496;13.456;2022-08-21T14:05:16;35.90;30.70
70079;DHT22;57451;52.496;13.456;2022-08-21T14:07:45;36.00;30.50
70079;DHT22;57451;52.496;13.456;2022-08-21T14:10:14;36.00;30.10
70079;DHT22;57451;52.496;13.456;2022-08-21T14:12:45;35.90;30.20
70079;DHT22;57451;52.496;13.456;2022-08-21T14:15:15;35.60;30.10
70079;DHT22;57451;52.496;13.456;2022-08-21T14:17:42;35.40;30.90
70079;DHT22;57451;52.496;13.456;2022-08-21T14:20:11;35.10;29.80
70079;DHT22;57451;52.496;13.456;2022-08-21T14:22:41;34.70;30.90
70079;DHT22;57451;52.496;13.456;2022-08-21T14:25:11;34.40;32.30
70079;DHT22;57451;52.496;13.456;2022-08-21T14:27:40;34.10;32.00
70079;DHT22;57451;52.496;13.456;2022-08-21T14:30:11;33.60;30.90
70079;DHT22;57451;52.496;13.456;2022-08-21T14:32:40;33.10;31.20
70079;DHT22;57451;52.496;13.456;2022-08-21T14:35:07;32.70;32.90
70079;DHT22;57451;52.496;13.456;2022-08-21T14:37:34;32.40;33.80
70079;DHT22;57451;52.496;13.456;2022-08-21T14:40:00;32.00;34.20
70079;DHT22;57451;52.496;13.456;2022-08-21T14:42:27;31.80;34.50
70079;DHT22;57451;52.496;13.456;2022-08-21T14:44:57;31.50;34.50
70079;DHT22;57451;52.496;13.456;2022-08-21T14:47:25;31.10;33.40
70079;DHT22;57451;52.496;13.456;2022-08-21T14:49:53;30.80;35.20
70079;DHT22;57451;52.496;13.456;2022-08-21T14:52:19;30.60;34.30
70079;DHT22;57451;52.496;13.456;2022-08-21T14:54:46;30.30;35.50
70079;DHT22;57451;52.496;13.456;2022-08-21T14:57:12;30.10;36.30
70079;DHT22;57451;52.496;13.456;2022-08-21T14:59:39;29.90;36.50
70079;DHT22;57451;52.496;13.456;2022-08-21T15:02:08;29.60;36.40
70079;DHT22;57451;52.496;13.456;2022-08-21T15:04:35;29.30;36.60
70079;DHT22;57451;52.496;13.456;2022-08-21T15:07:03;29.10;36.60
70079;DHT22;57451;52.496;13.456;2022-08-21T15:09:30;28.90;36.70
70079;DHT22;57451;52.496;13.456;2022-08-21T15:11:57;28.60;37.90
70079;DHT22;57451;52.496;13.456;2022-08-21T15:14:28;28.40;37.90
70079;DHT22;57451;52.496;13.456;2022-08-21T15:16:55;28.30;37.90
70079;DHT22;57451;52.496;13.456;2022-08-21T15:19:22;28.20;39.20
70079;DHT22;57451;52.496;13.456;2022-08-21T15:21:48;27.90;38.80
70079;DHT22;57451;52.496;13.456;2022-08-21T15:24:16;27.70;39.20
70079;DHT22;57451;52.496;13.456;2022-08-21T15:26:43;27.60;39.40